createdAt,value
2023-03-28T00:00:16.812Z,1.43
2023-03-28T00:02:43.236Z,1.47
2023-03-28T00:05:11.247Z,1.62
2023-03-28T00:07:38.384Z,1.59
2023-03-28T00:10:06.651Z,1.65
2023-03-28T00:12:33.119Z,1.54
2023-03-28T00:15:00.776Z,1.74
2023-03-28T00:17:27.155Z,2.31
2023-03-28T00:19:53.684Z,2.54
2023-03-28T00:22:21.267Z,2.88
2023-03-28T00:24:48.815Z,2.87
2023-03-28T00:27:16.011Z,2.92
2023-03-28T00:29:42.599Z,2.61
2023-03-28T00:32:09.023Z,2.56
2023-03-28T00:34:40.572Z,2.42
2023-03-28T00:37:07.023Z,2.27
2023-03-28T00:39:34.519Z,2.37
2023-03-28T00:42:01.686Z,2.45
2023-03-28T00:44:46.795Z,3.03
2023-03-28T00:47:16.758Z,3.01
2023-03-28T00:49:46.688Z,2.89
2023-03-28T00:52:15.397Z,2.95
2023-03-28T00:54:42.059Z,2.92
2023-03-28T00:57:09.872Z,3.19
2023-03-28T00:59:38.677Z,3.12
2023-03-28T01:02:06.180Z,2.68
2023-03-28T01:04:49.651Z,2.79
2023-03-28T01:07:16.798Z,2.66
2023-03-28T01:09:43.577Z,2.59
2023-03-28T01:12:11.218Z,2.25
2023-03-28T01:14:39.956Z,2.12
2023-03-28T01:17:06.562Z,2.06
2023-03-28T01:20:00.745Z,2.11
2023-03-28T01:22:58.392Z,2.51
2023-03-28T01:25:48.876Z,2.77
2023-03-28T01:28:36.388Z,2.87
2023-03-28T01:31:11.941Z,2.52
2023-03-28T01:33:57.157Z,2.46
2023-03-28T01:36:48.132Z,2.57
2023-03-28T01:39:49.416Z,2.49
2023-03-28T01:42:21.555Z,2.43
2023-03-28T01:44:51.746Z,2.16
2023-03-28T01:47:40.673Z,1.76
2023-03-28T01:50:19.958Z,1.86
2023-03-28T01:53:07.897Z,1.72
2023-03-28T01:55:48.568Z,1.72
2023-03-28T01:58:36.258Z,1.55
2023-03-28T02:01:13.717Z,1.17
2023-03-28T02:03:46.447Z,1.23
2023-03-28T02:06:14.557Z,1.18
2023-03-28T02:08:43.708Z,1.13
2023-03-28T02:11:11.029Z,1.35
2023-03-28T02:13:43.840Z,1.25
2023-03-28T02:16:12.060Z,1.16
2023-03-28T02:18:41.709Z,1.29
2023-03-28T02:21:17.182Z,1.17
2023-03-28T02:23:47.268Z,1.12
2023-03-28T02:26:14.203Z,1.00
2023-03-28T02:28:43.231Z,1.09
2023-03-28T02:31:11.178Z,0.92
2023-03-28T02:33:47.237Z,1.02
2023-03-28T02:36:41.787Z,0.92
2023-03-28T02:39:39.241Z,0.78
2023-03-28T02:42:05.845Z,0.61
2023-03-28T02:45:09.927Z,0.62
2023-03-28T02:47:39.447Z,0.65
2023-03-28T02:50:30.151Z,0.67
2023-03-28T02:53:08.714Z,0.61
2023-03-28T02:56:05.599Z,0.61
2023-03-28T02:58:46.274Z,0.42
2023-03-28T03:01:14.570Z,0.55
2023-03-28T03:03:42.325Z,0.52
2023-03-28T03:06:09.400Z,0.37
2023-03-28T03:08:36.111Z,0.57
2023-03-28T03:11:02.570Z,0.73
2023-03-28T03:13:28.967Z,0.86
2023-03-28T03:15:56.193Z,0.93
2023-03-28T03:18:22.872Z,0.75
2023-03-28T03:20:50.348Z,0.99
2023-03-28T03:23:17.396Z,1.04
2023-03-28T03:25:45.227Z,1.15
2023-03-28T03:28:12.956Z,1.13
2023-03-28T03:30:39.354Z,0.93
2023-03-28T03:33:05.872Z,1.07
2023-03-28T03:35:35.592Z,0.99
2023-03-28T03:38:02.362Z,0.77
2023-03-28T03:40:28.743Z,0.80
2023-03-28T03:42:55.329Z,0.67
2023-03-28T03:45:22.143Z,0.61
2023-03-28T03:47:48.528Z,0.43
2023-03-28T03:50:15.228Z,0.44
2023-03-28T03:52:41.981Z,0.45
2023-03-28T03:55:09.292Z,0.48
2023-03-28T03:57:36.014Z,0.33
2023-03-28T04:00:09.628Z,0.42
2023-03-28T04:02:36.120Z,0.48
2023-03-28T04:05:02.565Z,0.18
2023-03-28T04:07:28.953Z,0.18
2023-03-28T04:09:56.785Z,0.22
2023-03-28T04:12:23.208Z,0.20
2023-03-28T04:14:49.603Z,0.09
2023-03-28T04:17:17.649Z,0.05
2023-03-28T04:19:45.754Z,-0.06
2023-03-28T04:22:12.928Z,-0.09
2023-03-28T04:24:44.618Z,-0.02
2023-03-28T04:27:12.056Z,-0.05
2023-03-28T04:29:39.278Z,-0.17
2023-03-28T04:32:06.539Z,0.85
2023-03-28T04:34:33.826Z,0.30
2023-03-28T04:37:01.872Z,0.08
2023-03-28T04:39:29.886Z,-0.07
2023-03-28T04:41:56.635Z,-0.04
2023-03-28T04:44:23.366Z,-0.13
2023-03-28T04:46:51.233Z,-0.19
2023-03-28T04:49:18.064Z,-0.31
2023-03-28T04:51:44.733Z,-0.32
2023-03-28T04:54:11.267Z,-0.32
2023-03-28T04:56:38.117Z,-0.46
2023-03-28T04:59:04.617Z,-0.37
2023-03-28T05:01:31.251Z,-0.38
2023-03-28T05:03:57.627Z,-0.41
2023-03-28T05:06:25.889Z,-0.30
2023-03-28T05:08:52.252Z,-0.40
2023-03-28T05:11:19.787Z,-0.39
2023-03-28T05:13:46.234Z,-0.52
2023-03-28T05:16:12.673Z,-0.56
2023-03-28T05:18:39.047Z,-0.60
2023-03-28T05:21:06.075Z,-0.66
2023-03-28T05:23:32.629Z,-0.67
2023-03-28T05:25:59.053Z,-0.69
2023-03-28T05:28:25.629Z,-0.80
2023-03-28T05:30:52.069Z,-0.79
2023-03-28T05:33:18.525Z,-0.64
2023-03-28T05:35:45.045Z,-0.66
2023-03-28T05:38:11.547Z,-0.64
2023-03-28T05:40:37.952Z,-0.49
2023-03-28T05:43:04.693Z,-0.42
2023-03-28T05:45:31.182Z,-0.55
2023-03-28T05:47:57.660Z,-0.42
2023-03-28T05:50:26.251Z,-0.34
2023-03-28T05:52:52.973Z,-0.08
2023-03-28T05:55:19.322Z,0.08
2023-03-28T05:57:45.675Z,0.24
2023-03-28T06:00:12.628Z,0.44
2023-03-28T06:02:40.316Z,0.40
2023-03-28T06:05:07.744Z,0.59
2023-03-28T06:07:42.184Z,0.56
2023-03-28T06:10:12.500Z,0.55
2023-03-28T06:12:39.520Z,0.62
2023-03-28T06:15:06.870Z,0.79
2023-03-28T06:17:33.452Z,0.85
2023-03-28T06:20:00.382Z,0.88
2023-03-28T06:22:26.957Z,0.94
2023-03-28T06:24:53.433Z,0.95
2023-03-28T06:27:19.789Z,0.96
2023-03-28T06:29:46.176Z,1.12
2023-03-28T06:32:12.658Z,1.25
2023-03-28T06:34:39.096Z,1.44
2023-03-28T06:37:05.554Z,1.54
2023-03-28T06:39:31.931Z,1.61
2023-03-28T06:41:59.681Z,1.52
2023-03-28T06:44:26.123Z,1.65
2023-03-28T06:46:52.516Z,1.73
2023-03-28T06:49:19.029Z,1.97
2023-03-28T06:51:45.566Z,1.93
2023-03-28T06:54:11.928Z,1.94
2023-03-28T06:56:38.343Z,2.12
2023-03-28T06:59:04.758Z,2.22
2023-03-28T07:01:31.159Z,2.44
2023-03-28T07:03:59.520Z,2.45
2023-03-28T07:06:28.004Z,2.53
2023-03-28T07:08:56.942Z,2.89
2023-03-28T07:11:23.389Z,2.89
2023-03-28T07:13:50.245Z,3.00
2023-03-28T07:16:17.524Z,2.90
2023-03-28T07:18:44.310Z,2.81
2023-03-28T07:21:13.849Z,2.99
2023-03-28T07:23:40.798Z,3.01
2023-03-28T07:26:09.335Z,3.14
2023-03-28T07:28:36.176Z,3.07
2023-03-28T07:31:05.018Z,3.09
2023-03-28T07:33:37.246Z,3.71
2023-03-28T07:36:16.103Z,3.62
2023-03-28T07:38:42.652Z,3.60
2023-03-28T07:41:09.510Z,3.49
2023-03-28T07:43:36.300Z,3.98
2023-03-28T07:46:06.325Z,4.35
2023-03-28T07:48:33.326Z,4.62
2023-03-28T07:51:00.464Z,4.42
2023-03-28T07:53:27.996Z,4.36
2023-03-28T07:55:55.955Z,4.61
2023-03-28T07:58:23.683Z,4.78
2023-03-28T08:00:50.542Z,4.57
2023-03-28T08:03:17.212Z,4.91
2023-03-28T08:05:51.640Z,4.69
2023-03-28T08:08:20.181Z,5.29
2023-03-28T08:10:50.842Z,5.36
2023-03-28T08:13:18.377Z,5.45
2023-03-28T08:15:44.803Z,5.64
2023-03-28T08:18:13.022Z,5.60
2023-03-28T08:20:39.451Z,6.18
2023-03-28T08:23:07.399Z,5.93
2023-03-28T08:25:33.777Z,5.88
2023-03-28T08:28:00.219Z,5.91
2023-03-28T08:30:26.728Z,5.88
2023-03-28T08:32:53.365Z,6.03
2023-03-28T08:35:19.785Z,6.26
2023-03-28T08:37:46.479Z,6.10
2023-03-28T08:40:17.401Z,6.31
2023-03-28T08:42:56.758Z,6.23
2023-03-28T08:45:41.486Z,6.55
2023-03-28T08:48:10.930Z,6.50
2023-03-28T08:50:51.059Z,6.47
2023-03-28T08:53:41.418Z,6.32
2023-03-28T08:56:08.475Z,7.01
2023-03-28T08:58:51.339Z,7.05
2023-03-28T09:01:22.092Z,7.45
2023-03-28T09:03:53.567Z,7.32
2023-03-28T09:06:28.674Z,6.92
2023-03-28T09:09:13.127Z,7.17
2023-03-28T09:11:54.453Z,7.38
2023-03-28T09:15:01.417Z,7.56
2023-03-28T09:17:33.343Z,7.87
2023-03-28T09:20:21.263Z,7.84
2023-03-28T09:23:06.477Z,7.27
2023-03-28T09:25:49.057Z,7.71
2023-03-28T09:28:35.388Z,7.34
2023-03-28T09:31:05.348Z,8.19
2023-03-28T09:33:38.594Z,8.38
2023-03-28T09:36:12.259Z,8.34
2023-03-28T09:38:44.568Z,8.15
2023-03-28T09:41:23.110Z,8.33
2023-03-28T09:43:56.247Z,7.47
2023-03-28T09:46:31.627Z,8.04
2023-03-28T09:48:58.425Z,8.11
2023-03-28T09:51:25.234Z,8.22
2023-03-28T09:53:51.620Z,8.17
2023-03-28T09:56:31.928Z,7.79
2023-03-28T09:59:02.388Z,7.70
2023-03-28T10:01:46.172Z,8.45
2023-03-28T10:04:18.660Z,8.73
2023-03-28T10:06:46.392Z,8.73
2023-03-28T10:09:30.855Z,9.17
2023-03-28T10:12:00.289Z,8.73
2023-03-28T10:14:31.020Z,8.97
2023-03-28T10:17:01.946Z,8.87
2023-03-28T10:19:33.426Z,8.70
2023-03-28T10:22:07.523Z,8.67
2023-03-28T10:24:34.923Z,8.60
2023-03-28T10:27:23.903Z,8.92
2023-03-28T10:29:53.394Z,8.88
2023-03-28T10:32:29.020Z,8.80
2023-03-28T10:35:26.898Z,9.21
2023-03-28T10:37:56.969Z,9.67
2023-03-28T10:40:30.053Z,9.82
2023-03-28T10:42:58.462Z,9.34
2023-03-28T10:45:38.120Z,9.60
2023-03-28T10:48:27.732Z,9.73
2023-03-28T10:50:56.634Z,9.59
2023-03-28T10:53:23.010Z,9.32
2023-03-28T10:56:19.667Z,9.15
2023-03-28T10:58:55.906Z,9.71
2023-03-28T11:01:30.176Z,10.08
2023-03-28T11:04:23.278Z,9.60
2023-03-28T11:06:58.792Z,9.43
2023-03-28T11:09:31.586Z,9.27
2023-03-28T11:12:22.962Z,9.38
2023-03-28T11:15:05.375Z,10.14
2023-03-28T11:18:13.639Z,9.96
2023-03-28T11:21:17.722Z,9.90
2023-03-28T11:23:46.393Z,9.97
2023-03-28T11:26:17.348Z,10.25
2023-03-28T11:28:52.812Z,10.62
2023-03-28T11:31:24.891Z,10.56
2023-03-28T11:34:00.632Z,10.59
2023-03-28T11:36:34.817Z,10.42
2023-03-28T11:39:10.736Z,10.21
2023-03-28T11:41:39.568Z,10.55
2023-03-28T11:44:38.428Z,10.63
2023-03-28T11:47:12.274Z,10.33
2023-03-28T11:49:44.467Z,10.43
2023-03-28T11:52:22.942Z,9.92
2023-03-28T11:55:07.610Z,9.99
2023-03-28T11:57:51.224Z,10.39
2023-03-28T12:03:11.593Z,10.78
2023-03-28T12:05:46.274Z,11.00
2023-03-28T12:08:19.552Z,10.79
2023-03-28T12:10:51.227Z,10.48
2023-03-28T12:13:45.918Z,10.15
2023-03-28T12:16:29.161Z,10.70
2023-03-28T12:19:01.462Z,10.37
2023-03-28T12:21:38.772Z,10.97
2023-03-28T12:24:20.521Z,11.15
2023-03-28T12:27:09.115Z,11.12
2023-03-28T12:29:36.128Z,11.11
2023-03-28T12:32:26.583Z,11.05
2023-03-28T12:35:05.752Z,11.23
2023-03-28T12:37:42.077Z,11.50
2023-03-28T12:40:27.158Z,11.81
2023-03-28T12:42:58.071Z,11.97
2023-03-28T12:45:31.620Z,11.74
2023-03-28T12:48:06.354Z,11.76
2023-03-28T12:50:48.143Z,12.03
2023-03-28T12:53:15.657Z,11.37
2023-03-28T12:55:52.038Z,10.62
2023-03-28T12:58:21.753Z,11.38
2023-03-28T13:01:06.244Z,11.78
2023-03-28T13:04:03.840Z,11.48
2023-03-28T13:06:53.052Z,11.18
2023-03-28T13:09:49.471Z,11.20
2023-03-28T13:12:21.631Z,11.27
2023-03-28T13:14:58.601Z,11.30
2023-03-28T13:17:27.544Z,11.67
2023-03-28T13:20:15.947Z,11.75
2023-03-28T13:22:50.286Z,11.61
2023-03-28T13:25:21.172Z,11.48
2023-03-28T13:27:49.535Z,11.57
2023-03-28T13:30:18.680Z,11.44
2023-03-28T13:32:53.684Z,11.70
2023-03-28T13:35:39.527Z,11.83
2023-03-28T13:38:21.078Z,11.52
2023-03-28T13:40:56.021Z,11.27
2023-03-28T13:43:37.656Z,11.67
2023-03-28T13:46:19.383Z,11.51
2023-03-28T13:49:05.187Z,11.49
2023-03-28T13:51:39.862Z,11.20
2023-03-28T13:54:08.948Z,11.88
2023-03-28T13:56:36.025Z,11.71
2023-03-28T13:59:06.741Z,11.97
2023-03-28T14:01:36.333Z,11.88
2023-03-28T14:04:11.168Z,12.37
2023-03-28T14:06:42.026Z,12.21
2023-03-28T14:09:39.368Z,12.60
2023-03-28T14:12:13.711Z,12.38
2023-03-28T14:14:50.604Z,12.19
2023-03-28T14:17:20.102Z,12.00
2023-03-28T14:19:51.808Z,12.37
2023-03-28T14:22:23.495Z,12.69
2023-03-28T14:24:57.716Z,12.59
2023-03-28T14:27:38.354Z,12.21
2023-03-28T14:30:19.604Z,12.07
2023-03-28T14:32:59.014Z,11.82
2023-03-28T14:35:35.371Z,12.01
2023-03-28T14:38:04.462Z,12.10
2023-03-28T14:40:39.246Z,11.63
2023-03-28T14:43:19.317Z,11.05
2023-03-28T14:45:51.796Z,10.75
2023-03-28T14:48:23.804Z,11.00
2023-03-28T14:50:53.326Z,11.24
2023-03-28T14:53:24.415Z,11.59
2023-03-28T14:55:54.441Z,11.64
2023-03-28T14:58:23.972Z,11.02
2023-03-28T15:00:54.336Z,10.85
2023-03-28T15:03:42.266Z,11.25
2023-03-28T15:06:15.019Z,11.48
2023-03-28T15:08:41.846Z,11.24
2023-03-28T15:11:18.494Z,11.23
2023-03-28T15:13:49.110Z,11.15
2023-03-28T15:16:20.326Z,10.90
2023-03-28T15:19:06.726Z,11.40
2023-03-28T15:21:39.128Z,10.96
2023-03-28T15:24:10.181Z,10.85
2023-03-28T15:26:41.948Z,11.27
2023-03-28T15:29:10.141Z,11.37
2023-03-28T15:31:40.685Z,11.51
2023-03-28T15:34:21.949Z,11.51
2023-03-28T15:36:57.618Z,11.54
2023-03-28T15:39:27.176Z,11.66
2023-03-28T15:41:59.444Z,11.49
2023-03-28T15:44:32.963Z,11.16
2023-03-28T15:47:03.196Z,11.38
2023-03-28T15:49:35.170Z,11.24
2023-03-28T15:52:04.890Z,11.03
2023-03-28T15:54:42.151Z,10.94
2023-03-28T15:57:12.137Z,11.24
2023-03-28T15:59:46.301Z,11.14
2023-03-28T16:02:25.169Z,11.24
2023-03-28T16:05:00.642Z,11.06
2023-03-28T16:07:33.077Z,10.81
2023-03-28T16:09:59.506Z,10.50
2023-03-28T16:12:27.202Z,10.60
2023-03-28T16:14:55.254Z,10.52
2023-03-28T16:17:29.379Z,10.51
2023-03-28T16:19:56.845Z,10.38
2023-03-28T16:22:24.523Z,10.30
2023-03-28T16:24:52.591Z,10.20
2023-03-28T16:27:20.270Z,10.27
2023-03-28T16:29:46.980Z,10.19
2023-03-28T16:32:15.598Z,10.31
2023-03-28T16:34:42.982Z,10.21
2023-03-28T16:37:10.307Z,10.24
2023-03-28T16:39:37.496Z,10.18
2023-03-28T16:42:05.336Z,10.28
2023-03-28T16:44:32.451Z,10.28
2023-03-28T16:46:59.755Z,10.30
2023-03-28T16:49:26.900Z,10.22
2023-03-28T16:51:54.760Z,10.08
2023-03-28T16:54:24.530Z,10.14
2023-03-28T16:56:51.053Z,10.23
2023-03-28T16:59:17.702Z,10.34
2023-03-28T17:01:46.362Z,10.32
2023-03-28T17:04:13.492Z,10.20
2023-03-28T17:06:40.230Z,10.05
2023-03-28T17:09:06.782Z,9.96
2023-03-28T17:11:36.389Z,9.91
2023-03-28T17:14:03.644Z,9.88
2023-03-28T17:16:30.070Z,9.84
2023-03-28T17:18:56.578Z,9.91
2023-03-28T17:21:22.949Z,9.93
2023-03-28T17:23:50.908Z,9.86
2023-03-28T17:26:18.315Z,9.76
2023-03-28T17:28:45.161Z,9.64
2023-03-28T17:31:14.707Z,9.57
2023-03-28T17:33:41.571Z,9.56
2023-03-28T17:36:19.650Z,9.55
2023-03-28T17:38:48.877Z,9.54
2023-03-28T17:41:15.400Z,9.40
2023-03-28T17:43:42.384Z,9.48
2023-03-28T17:46:09.753Z,9.39
2023-03-28T17:48:38.696Z,9.43
2023-03-28T17:51:05.385Z,9.49
2023-03-28T17:53:32.311Z,9.47
2023-03-28T17:55:59.822Z,9.61
2023-03-28T17:58:26.474Z,9.62
2023-03-28T18:00:53.108Z,9.65
2023-03-28T18:03:19.923Z,9.57
2023-03-28T18:05:53.763Z,9.56
2023-03-28T18:08:20.313Z,9.54
2023-03-28T18:10:47.476Z,9.68
2023-03-28T18:13:14.896Z,9.62
2023-03-28T18:15:42.209Z,9.54
2023-03-28T18:18:09.419Z,9.72
2023-03-28T18:20:36.222Z,9.58
2023-03-28T18:23:02.616Z,9.53
2023-03-28T18:25:32.359Z,9.40
2023-03-28T18:27:59.509Z,9.39
2023-03-28T18:30:25.899Z,9.46
2023-03-28T18:32:52.319Z,9.47
2023-03-28T18:35:18.754Z,9.40
2023-03-28T18:37:45.351Z,9.51
2023-03-28T18:40:14.274Z,9.53
2023-03-28T18:42:41.453Z,9.41
2023-03-28T18:45:08.915Z,9.34
2023-03-28T18:47:39.206Z,9.41
2023-03-28T18:50:06.929Z,9.39
2023-03-28T18:52:33.374Z,9.42
2023-03-28T18:54:59.778Z,9.40
2023-03-28T18:57:26.432Z,9.39
2023-03-28T18:59:55.479Z,9.41
2023-03-28T19:02:22.180Z,9.40
2023-03-28T19:04:49.116Z,9.31
2023-03-28T19:07:16.942Z,9.41
2023-03-28T19:09:43.854Z,9.43
2023-03-28T19:12:12.266Z,9.45
2023-03-28T19:14:39.291Z,9.34
2023-03-28T19:17:06.589Z,9.24
2023-03-28T19:19:37.143Z,9.18
2023-03-28T19:22:06.242Z,9.33
2023-03-28T19:24:33.549Z,9.34
2023-03-28T19:27:01.400Z,9.49
2023-03-28T19:29:29.978Z,9.46
2023-03-28T19:31:56.726Z,9.58
2023-03-28T19:34:23.283Z,9.62
2023-03-28T19:36:49.868Z,9.55
2023-03-28T19:39:16.314Z,9.65
2023-03-28T19:41:42.858Z,9.57
2023-03-28T19:44:09.441Z,9.53
2023-03-28T19:46:38.477Z,9.43
2023-03-28T19:49:06.376Z,9.59
2023-03-28T19:51:34.069Z,9.41
2023-03-28T19:54:00.662Z,9.52
2023-03-28T19:56:27.303Z,9.70
2023-03-28T19:58:53.688Z,9.90
2023-03-28T20:01:20.113Z,9.64
2023-03-28T20:03:49.390Z,9.61
2023-03-28T20:06:16.851Z,9.64
2023-03-28T20:08:43.337Z,9.42
2023-03-28T20:11:12.583Z,9.67
2023-03-28T20:13:39.413Z,9.64
2023-03-28T20:16:08.450Z,9.48
2023-03-28T20:18:36.962Z,9.29
2023-03-28T20:21:06.745Z,9.63
2023-03-28T20:23:33.511Z,9.40
2023-03-28T20:26:01.625Z,9.55
2023-03-28T20:28:32.511Z,9.04
2023-03-28T20:30:59.519Z,8.97
2023-03-28T20:33:26.261Z,8.65
2023-03-28T20:35:58.153Z,8.50
2023-03-28T20:38:26.068Z,8.82
2023-03-28T20:40:52.757Z,8.76
2023-03-28T20:43:26.765Z,8.56
2023-03-28T20:45:54.990Z,8.55
2023-03-28T20:48:34.948Z,8.65
2023-03-28T20:51:03.090Z,8.61
2023-03-28T20:53:30.690Z,8.69
2023-03-28T20:56:04.980Z,8.71
2023-03-28T20:58:32.989Z,8.68
2023-03-28T21:01:01.596Z,8.61
2023-03-28T21:03:47.764Z,8.48
2023-03-28T21:06:16.506Z,8.67
2023-03-28T21:08:47.442Z,8.47
2023-03-28T21:11:22.504Z,8.51
2023-03-28T21:13:49.503Z,8.72
2023-03-28T21:16:17.271Z,8.62
2023-03-28T21:18:44.542Z,8.69
2023-03-28T21:21:13.125Z,8.42
2023-03-28T21:23:40.726Z,8.38
2023-03-28T21:26:10.236Z,8.37
2023-03-28T21:28:36.767Z,8.45
2023-03-28T21:31:10.099Z,8.33
2023-03-28T21:33:38.085Z,8.34
2023-03-28T21:36:07.248Z,8.30
2023-03-28T21:38:34.418Z,8.42
2023-03-28T21:41:01.001Z,8.29
2023-03-28T21:43:27.809Z,8.33
2023-03-28T21:45:54.312Z,8.37
2023-03-28T21:48:21.086Z,8.36
2023-03-28T21:50:59.311Z,8.25
2023-03-28T21:53:28.264Z,8.37
2023-03-28T21:55:56.108Z,8.31
2023-03-28T21:58:23.487Z,8.28
2023-03-28T22:00:50.251Z,8.29
2023-03-28T22:03:16.937Z,8.09
2023-03-28T22:05:44.103Z,8.14
2023-03-28T22:08:12.413Z,8.23
2023-03-28T22:10:45.758Z,7.75
2023-03-28T22:13:13.819Z,8.06
2023-03-28T22:15:40.663Z,8.01
2023-03-28T22:18:09.214Z,8.21
2023-03-28T22:20:37.875Z,7.95
2023-03-28T22:23:05.091Z,7.95
2023-03-28T22:25:34.627Z,7.94
2023-03-28T22:28:07.431Z,7.92
2023-03-28T22:30:34.600Z,7.89
2023-03-28T22:33:02.362Z,7.84
2023-03-28T22:35:28.830Z,7.85
2023-03-28T22:37:55.391Z,7.79
2023-03-28T22:40:22.122Z,7.80
2023-03-28T22:42:48.623Z,7.88
2023-03-28T22:45:16.602Z,7.96
2023-03-28T22:47:42.965Z,7.93
2023-03-28T22:50:12.321Z,7.96
2023-03-28T22:52:38.874Z,7.70
2023-03-28T22:55:05.969Z,7.72
2023-03-28T22:57:32.860Z,7.82
2023-03-28T22:59:59.963Z,7.73
2023-03-28T23:02:26.322Z,7.55
2023-03-28T23:04:54.168Z,7.45
2023-03-28T23:07:20.815Z,7.43
2023-03-28T23:09:48.095Z,7.37
2023-03-28T23:12:14.670Z,7.37
2023-03-28T23:14:41.278Z,7.31
2023-03-28T23:17:09.671Z,7.25
2023-03-28T23:19:36.045Z,7.30
2023-03-28T23:22:02.392Z,7.25
2023-03-28T23:24:28.865Z,7.25
2023-03-28T23:26:56.079Z,7.34
2023-03-28T23:29:23.207Z,7.39
2023-03-28T23:31:50.201Z,7.44
2023-03-28T23:34:16.830Z,7.41
2023-03-28T23:36:45.909Z,7.37
2023-03-28T23:39:13.357Z,7.33
2023-03-28T23:41:40.900Z,7.20
2023-03-28T23:44:07.787Z,7.24
2023-03-28T23:46:34.679Z,7.20
2023-03-28T23:49:01.143Z,7.22
2023-03-28T23:51:29.122Z,7.26
2023-03-28T23:53:56.234Z,7.27
2023-03-28T23:56:23.887Z,7.41
2023-03-28T23:58:50.667Z,7.15
